sensor_id;sensor_type;location;lat;lon;timestamp;pressure;altitude;pressure_sealevel;temperature;humidity
10014;BME280;45684;48.358;10.746;2023-04-01T00:01:03;94967.66;;;8.47;100.00
10014;BME280;45684;48.358;10.746;2023-04-01T00:03:33;94965.09;;;8.50;100.00
10014;BME280;45684;48.358;10.746;2023-04-01T00:06:03;94970.13;;;8.52;100.00
10014;BME280;45684;48.358;10.746;2023-04-01T00:08:32;94958.13;;;8.49;100.00
10014;BME280;45684;48.358;10.746;2023-04-01T00:10:59;94954.09;;;8.55;100.00
10014;BME280;45684;48.358;10.746;2023-04-01T00:13:27;94955.66;;;8.56;100.00
10014;BME280;45684;48.358;10.746;2023-04-01T00:15:56;94954.09;;;8.55;100.00
10014;BME280;45684;48.358;10.746;2023-04-01T00:18:25;94950.16;;;8.53;100.00
10014;BME280;45684;48.358;10.746;2023-04-01T00:20:54;94948.06;;;8.58;100.00
10014;BME280;45684;48.358;10.746;2023-04-01T00:23:23;94947.06;;;8.63;100.00
10014;BME280;45684;48.358;10.746;2023-04-01T00:25:51;94944.25;;;8.59;100.00
10014;BME280;45684;48.358;10.746;2023-04-01T00:28:19;94950.53;;;8.63;100.00
10014;BME280;45684;48.358;10.746;2023-04-01T00:30:47;94956.25;;;8.62;100.00
10014;BME280;45684;48.358;10.746;2023-04-01T00:33:15;94943.56;;;8.62;100.00
10014;BME280;45684;48.358;10.746;2023-04-01T00:35:43;94950.06;;;8.49;100.00
10014;BME280;45684;48.358;10.746;2023-04-01T00:38:12;94941.28;;;8.52;100.00
10014;BME280;45684;48.358;10.746;2023-04-01T00:40:44;94945.38;;;8.58;100.00
10014;BME280;45684;48.358;10.746;2023-04-01T00:43:14;94955.81;;;8.60;100.00
10014;BME280;45684;48.358;10.746;2023-04-01T00:45:45;94948.06;;;8.58;100.00
10014;BME280;45684;48.358;10.746;2023-04-01T00:48:16;94959.56;;;8.47;100.00
10014;BME280;45684;48.358;10.746;2023-04-01T00:50:49;94960.34;;;8.47;100.00
10014;BME280;45684;48.358;10.746;2023-04-01T00:53:19;94957.44;;;8.52;100.00
10014;BME280;45684;48.358;10.746;2023-04-01T00:55:54;94967.09;;;8.53;100.00
10014;BME280;45684;48.358;10.746;2023-04-01T00:58:25;94959.72;;;8.62;100.00
10014;BME280;45684;48.358;10.746;2023-04-01T01:00:57;94964.44;;;8.65;100.00
10014;BME280;45684;48.358;10.746;2023-04-01T01:03:26;94966.72;;;8.63;100.00
10014;BME280;45684;48.358;10.746;2023-04-01T01:06:19;94955.25;;;8.66;100.00
10014;BME280;45684;48.358;10.746;2023-04-01T01:09:06;94953.59;;;8.74;100.00
10014;BME280;45684;48.358;10.746;2023-04-01T01:11:41;94955.72;;;8.68;100.00
10014;BME280;45684;48.358;10.746;2023-04-01T01:14:19;94949.19;;;8.69;100.00
10014;BME280;45684;48.358;10.746;2023-04-01T01:16:54;94939.97;;;8.71;100.00
10014;BME280;45684;48.358;10.746;2023-04-01T01:19:40;94930.22;;;8.66;100.00
10014;BME280;45684;48.358;10.746;2023-04-01T01:22:24;94940.97;;;8.54;100.00
10014;BME280;45684;48.358;10.746;2023-04-01T01:25:16;94937.16;;;8.55;100.00
10014;BME280;45684;48.358;10.746;2023-04-01T01:27:55;94934.34;;;8.51;100.00
10014;BME280;45684;48.358;10.746;2023-04-01T01:30:37;94931.50;;;8.48;100.00
10014;BME280;45684;48.358;10.746;2023-04-01T01:33:13;94939.94;;;8.46;100.00
10014;BME280;45684;48.358;10.746;2023-04-01T01:35:49;94942.84;;;8.41;100.00
10014;BME280;45684;48.358;10.746;2023-04-01T01:38:21;94946.75;;;8.43;100.00
10014;BME280;45684;48.358;10.746;2023-04-01T01:41:04;94932.84;;;8.41;100.00
10014;BME280;45684;48.358;10.746;2023-04-01T01:43:36;94941.13;;;8.36;100.00
10014;BME280;45684;48.358;10.746;2023-04-01T01:46:08;94928.97;;;8.30;100.00
10014;BME280;45684;48.358;10.746;2023-04-01T01:48:38;94926.81;;;8.24;100.00
10014;BME280;45684;48.358;10.746;2023-04-01T01:51:10;94929.38;;;8.20;100.00
10014;BME280;45684;48.358;10.746;2023-04-01T01:53:37;94928.28;;;8.21;100.00
10014;BME280;45684;48.358;10.746;2023-04-01T01:56:06;94933.25;;;8.10;100.00
10014;BME280;45684;48.358;10.746;2023-04-01T01:58:40;94923.41;;;8.14;100.00
10014;BME280;45684;48.358;10.746;2023-04-01T02:01:15;94925.66;;;8.12;100.00
10014;BME280;45684;48.358;10.746;2023-04-01T02:03:45;94924.09;;;8.11;100.00
10014;BME280;45684;48.358;10.746;2023-04-01T02:06:17;94930.13;;;8.08;100.00
10014;BME280;45684;48.358;10.746;2023-04-01T02:08:49;94932.81;;;8.08;100.00
10014;BME280;45684;48.358;10.746;2023-04-01T02:11:24;94937.50;;;7.99;100.00
10014;BME280;45684;48.358;10.746;2023-04-01T02:13:55;94939.06;;;8.00;100.00
10014;BME280;45684;48.358;10.746;2023-04-01T02:16:28;94932.88;;;8.00;100.00
10014;BME280;45684;48.358;10.746;2023-04-01T02:18:59;94938.47;;;7.95;100.00
10014;BME280;45684;48.358;10.746;2023-04-01T02:21:32;94938.81;;;7.93;100.00
10014;BME280;45684;48.358;10.746;2023-04-01T02:24:02;94938.09;;;7.84;100.00
10014;BME280;45684;48.358;10.746;2023-04-01T02:26:34;94942.34;;;7.85;100.00
10014;BME280;45684;48.358;10.746;2023-04-01T02:29:03;94946.81;;;7.81;100.00
10014;BME280;45684;48.358;10.746;2023-04-01T02:31:33;94943.69;;;7.79;100.00
10014;BME280;45684;48.358;10.746;2023-04-01T02:34:02;94948.13;;;7.75;100.00
10014;BME280;45684;48.358;10.746;2023-04-01T02:36:32;94955.47;;;7.65;100.00
10014;BME280;45684;48.358;10.746;2023-04-01T02:39:00;94947.91;;;7.59;100.00
10014;BME280;45684;48.358;10.746;2023-04-01T02:41:29;94951.91;;;7.53;100.00
10014;BME280;45684;48.358;10.746;2023-04-01T02:43:57;94958.09;;;7.53;100.00
10014;BME280;45684;48.358;10.746;2023-04-01T02:46:25;94953.22;;;7.47;100.00
10014;BME280;45684;48.358;10.746;2023-04-01T02:48:53;94954.47;;;7.49;100.00
10014;BME280;45684;48.358;10.746;2023-04-01T02:51:21;94964.63;;;7.44;100.00
10014;BME280;45684;48.358;10.746;2023-04-01T02:53:50;94961.78;;;7.40;100.00
10014;BME280;45684;48.358;10.746;2023-04-01T02:56:18;94968.75;;;7.41;100.00
10014;BME280;45684;48.358;10.746;2023-04-01T02:58:47;94966.53;;;7.43;100.00
10014;BME280;45684;48.358;10.746;2023-04-01T03:01:15;94964.63;;;7.44;100.00
10014;BME280;45684;48.358;10.746;2023-04-01T03:03:43;94968.28;;;7.39;100.00
10014;BME280;45684;48.358;10.746;2023-04-01T03:06:13;94963.50;;;7.45;100.00
10014;BME280;45684;48.358;10.746;2023-04-01T03:08:41;94968.44;;;7.43;100.00
10014;BME280;45684;48.358;10.746;2023-04-01T03:11:11;94961.31;;;7.47;100.00
10014;BME280;45684;48.358;10.746;2023-04-01T03:13:39;94967.41;;;7.56;100.00
10014;BME280;45684;48.358;10.746;2023-04-01T03:16:07;94974.97;;;7.62;100.00
10014;BME280;45684;48.358;10.746;2023-04-01T03:18:35;94976.94;;;7.74;100.00
10014;BME280;45684;48.358;10.746;2023-04-01T03:21:22;94978.72;;;7.70;100.00
10014;BME280;45684;48.358;10.746;2023-04-01T03:23:50;94987.38;;;7.76;100.00
10014;BME280;45684;48.358;10.746;2023-04-01T03:26:19;94980.22;;;7.80;100.00
10014;BME280;45684;48.358;10.746;2023-04-01T03:28:48;94983.22;;;7.78;100.00
10014;BME280;45684;48.358;10.746;2023-04-01T03:31:16;94987.63;;;7.83;100.00
10014;BME280;45684;48.358;10.746;2023-04-01T03:33:50;94988.75;;;7.82;100.00
10014;BME280;45684;48.358;10.746;2023-04-01T03:36:18;94991.09;;;7.62;100.00
10014;BME280;45684;48.358;10.746;2023-04-01T03:38:46;94991.84;;;7.72;100.00
10014;BME280;45684;48.358;10.746;2023-04-01T03:41:21;94994.19;;;7.73;100.00
10014;BME280;45684;48.358;10.746;2023-04-01T03:43:49;94989.59;;;7.74;100.00
10014;BME280;45684;48.358;10.746;2023-04-01T03:46:17;94996.56;;;7.75;100.00
10014;BME280;45684;48.358;10.746;2023-04-01T03:48:46;94994.97;;;7.74;100.00
10014;BME280;45684;48.358;10.746;2023-04-01T03:51:14;94988.31;;;7.80;100.00
10014;BME280;45684;48.358;10.746;2023-04-01T03:53:42;94991.19;;;7.75;100.00
10014;BME280;45684;48.358;10.746;2023-04-01T03:56:10;94996.38;;;7.80;100.00
10014;BME280;45684;48.358;10.746;2023-04-01T03:58:40;94999.22;;;7.83;100.00
10014;BME280;45684;48.358;10.746;2023-04-01T04:01:17;95000.19;;;7.79;100.00
10014;BME280;45684;48.358;10.746;2023-04-01T04:03:46;94993.63;;;7.88;100.00
10014;BME280;45684;48.358;10.746;2023-04-01T04:06:17;94993.69;;;7.80;100.00
10014;BME280;45684;48.358;10.746;2023-04-01T04:08:46;94992.13;;;7.79;100.00
10014;BME280;45684;48.358;10.746;2023-04-01T04:11:14;94995.91;;;7.78;100.00
10014;BME280;45684;48.358;10.746;2023-04-01T04:13:44;95000.34;;;7.74;100.00
10014;BME280;45684;48.358;10.746;2023-04-01T04:16:11;94995.13;;;7.77;100.00
10014;BME280;45684;48.358;10.746;2023-04-01T04:18:44;95003.03;;;7.74;100.00
10014;BME280;45684;48.358;10.746;2023-04-01T04:21:14;95000.34;;;7.74;100.00
10014;BME280;45684;48.358;10.746;2023-04-01T04:23:42;94997.41;;;7.66;100.00
10014;BME280;45684;48.358;10.746;2023-04-01T04:26:14;94992.63;;;7.72;100.00
10014;BME280;45684;48.358;10.746;2023-04-01T04:28:48;94998.53;;;7.65;100.00
10014;BME280;45684;48.358;10.746;2023-04-01T04:31:18;94992.03;;;7.66;100.00
10014;BME280;45684;48.358;10.746;2023-04-01T04:33:48;94991.44;;;7.61;100.00
10014;BME280;45684;48.358;10.746;2023-04-01T04:36:15;94987.47;;;7.58;100.00
10014;BME280;45684;48.358;10.746;2023-04-01T04:38:44;94989.19;;;7.63;100.00
10014;BME280;45684;48.358;10.746;2023-04-01T04:41:12;94986.84;;;7.61;100.00
10014;BME280;45684;48.358;10.746;2023-04-01T04:43:50;94987.22;;;7.72;100.00
10014;BME280;45684;48.358;10.746;2023-04-01T04:46:19;94984.88;;;7.71;100.00
10014;BME280;45684;48.358;10.746;2023-04-01T04:48:51;94983.91;;;7.75;100.00
10014;BME280;45684;48.358;10.746;2023-04-01T04:51:21;94985.91;;;7.78;100.00
10014;BME280;45684;48.358;10.746;2023-04-01T04:53:50;94982.72;;;7.85;100.00
10014;BME280;45684;48.358;10.746;2023-04-01T04:56:22;94985.06;;;7.86;100.00
10014;BME280;45684;48.358;10.746;2023-04-01T04:59:07;94992.22;;;7.82;100.00
10014;BME280;45684;48.358;10.746;2023-04-01T05:01:47;94976.75;;;7.79;100.00
10014;BME280;45684;48.358;10.746;2023-04-01T05:04:15;94986.19;;;7.85;100.00
10014;BME280;45684;48.358;10.746;2023-04-01T05:06:43;94987.78;;;7.86;100.00
10014;BME280;45684;48.358;10.746;2023-04-01T05:09:12;94984.75;;;7.88;100.00
10014;BME280;45684;48.358;10.746;2023-04-01T05:11:40;94989.81;;;7.89;100.00
10014;BME280;45684;48.358;10.746;2023-04-01T05:14:14;94987.84;;;7.99;100.00
10014;BME280;45684;48.358;10.746;2023-04-01T05:16:47;94983.91;;;7.96;100.00
10014;BME280;45684;48.358;10.746;2023-04-01T05:19:15;94978.84;;;7.95;100.00
10014;BME280;45684;48.358;10.746;2023-04-01T05:21:43;94982.00;;;7.97;100.00
10014;BME280;45684;48.358;10.746;2023-04-01T05:24:11;94982.00;;;7.97;100.00
10014;BME280;45684;48.358;10.746;2023-04-01T05:26:39;94975.19;;;7.99;100.00
10014;BME280;45684;48.358;10.746;2023-04-01T05:29:07;94966.63;;;7.97;100.00
10014;BME280;45684;48.358;10.746;2023-04-01T05:31:36;94972.41;;;7.87;100.00
10014;BME280;45684;48.358;10.746;2023-04-01T05:34:05;94982.06;;;7.88;100.00
10014;BME280;45684;48.358;10.746;2023-04-01T05:36:33;94984.22;;;7.95;100.00
10014;BME280;45684;48.358;10.746;2023-04-01T05:39:02;94976.66;;;7.88;100.00
10014;BME280;45684;48.358;10.746;2023-04-01T05:41:30;94990.13;;;7.88;100.00
10014;BME280;45684;48.358;10.746;2023-04-01T05:43:58;94979.00;;;7.98;100.00
10014;BME280;45684;48.358;10.746;2023-04-01T05:46:56;94987.50;;;8.00;100.00
10014;BME280;45684;48.358;10.746;2023-04-01T05:49:26;94987.25;;;7.93;100.00
10014;BME280;45684;48.358;10.746;2023-04-01T05:51:55;94979.63;;;7.95;100.00
10014;BME280;45684;48.358;10.746;2023-04-01T05:54:23;94989.03;;;7.89;100.00
10014;BME280;45684;48.358;10.746;2023-04-01T05:56:51;94984.56;;;7.93;100.00
10014;BME280;45684;48.358;10.746;2023-04-01T05:59:19;94989.69;;;8.07;100.00
10014;BME280;45684;48.358;10.746;2023-04-01T06:01:47;94986.00;;;8.11;100.00
10014;BME280;45684;48.358;10.746;2023-04-01T06:04:17;94982.34;;;8.16;100.00
10014;BME280;45684;48.358;10.746;2023-04-01T06:06:45;94987.88;;;8.32;100.00
10014;BME280;45684;48.358;10.746;2023-04-01T06:09:15;94989.06;;;8.43;100.00
10014;BME280;45684;48.358;10.746;2023-04-01T06:12:03;94988.41;;;8.46;100.00
10014;BME280;45684;48.358;10.746;2023-04-01T06:14:53;94982.47;;;8.53;100.00
10014;BME280;45684;48.358;10.746;2023-04-01T06:17:32;94985.31;;;8.56;100.00
10014;BME280;45684;48.358;10.746;2023-04-01T06:20:12;94991.63;;;8.60;100.00
10014;BME280;45684;48.358;10.746;2023-04-01T06:22:53;94992.06;;;8.62;100.00
10014;BME280;45684;48.358;10.746;2023-04-01T06:25:33;94995.69;;;8.79;100.00
10014;BME280;45684;48.358;10.746;2023-04-01T06:28:20;94996.63;;;8.95;100.00
10014;BME280;45684;48.358;10.746;2023-04-01T06:30:55;94993.53;;;9.05;100.00
10014;BME280;45684;48.358;10.746;2023-04-01T06:33:42;95001.38;;;9.10;100.00
10014;BME280;45684;48.358;10.746;2023-04-01T06:36:23;94996.13;;;9.14;100.00
10014;BME280;45684;48.358;10.746;2023-04-01T06:39:03;94991.81;;;9.13;100.00
10014;BME280;45684;48.358;10.746;2023-04-01T06:44:56;94987.75;;;8.94;100.00
10014;BME280;45684;48.358;10.746;2023-04-01T06:48:02;94998.09;;;8.92;100.00
10014;BME280;45684;48.358;10.746;2023-04-01T06:50:55;94979.03;;;9.10;100.00
10014;BME280;45684;48.358;10.746;2023-04-01T06:53:52;94985.97;;;9.23;100.00
10014;BME280;45684;48.358;10.746;2023-04-01T06:56:59;94995.09;;;9.31;100.00
10014;BME280;45684;48.358;10.746;2023-04-01T06:59:31;95001.66;;;9.42;100.00
10014;BME280;45684;48.358;10.746;2023-04-01T07:02:03;94994.53;;;9.62;100.00
10014;BME280;45684;48.358;10.746;2023-04-01T07:04:35;95000.94;;;9.69;100.00
10014;BME280;45684;48.358;10.746;2023-04-01T07:07:10;94998.94;;;9.54;100.00
10014;BME280;45684;48.358;10.746;2023-04-01T07:09:55;94990.84;;;9.66;100.00
10014;BME280;45684;48.358;10.746;2023-04-01T07:12:38;95006.47;;;9.61;100.00
10014;BME280;45684;48.358;10.746;2023-04-01T07:15:36;94992.63;;;9.62;100.00
10014;BME280;45684;48.358;10.746;2023-04-01T07:18:12;94981.34;;;9.85;100.00
10014;BME280;45684;48.358;10.746;2023-04-01T07:20:42;94996.50;;;10.02;100.00
10014;BME280;45684;48.358;10.746;2023-04-01T07:23:17;94998.53;;;9.92;100.00
10014;BME280;45684;48.358;10.746;2023-04-01T07:26:14;94988.06;;;10.03;100.00
10014;BME280;45684;48.358;10.746;2023-04-01T07:29:01;94993.13;;;9.92;100.00
10014;BME280;45684;48.358;10.746;2023-04-01T07:31:49;94991.38;;;9.84;100.00
10014;BME280;45684;48.358;10.746;2023-04-01T07:34:25;94991.22;;;9.93;100.00
10014;BME280;45684;48.358;10.746;2023-04-01T07:36:58;94984.13;;;9.88;100.00
10014;BME280;45684;48.358;10.746;2023-04-01T07:39:36;95002.97;;;9.85;100.00
10014;BME280;45684;48.358;10.746;2023-04-01T07:42:35;94991.69;;;9.83;100.00
10014;BME280;45684;48.358;10.746;2023-04-01T07:45:14;95005.19;;;9.83;100.00
10014;BME280;45684;48.358;10.746;2023-04-01T07:48:01;95006.22;;;9.90;100.00
10014;BME280;45684;48.358;10.746;2023-04-01T07:50:39;95003.38;;;9.99;100.00
10014;BME280;45684;48.358;10.746;2023-04-01T07:53:15;95006.50;;;10.13;100.00
10014;BME280;45684;48.358;10.746;2023-04-01T07:55:54;95015.16;;;10.31;100.00
10014;BME280;45684;48.358;10.746;2023-04-01T07:58:36;95005.91;;;10.32;100.00
10014;BME280;45684;48.358;10.746;2023-04-01T08:01:15;95012.44;;;10.19;100.00
10014;BME280;45684;48.358;10.746;2023-04-01T08:04:10;95009.88;;;10.10;100.00
10014;BME280;45684;48.358;10.746;2023-04-01T08:06:45;95009.97;;;10.14;100.00
10014;BME280;45684;48.358;10.746;2023-04-01T08:09:24;95015.22;;;10.35;100.00
10014;BME280;45684;48.358;10.746;2023-04-01T08:12:32;94994.56;;;10.55;100.00
10014;BME280;45684;48.358;10.746;2023-04-01T08:15:46;95002.28;;;10.68;100.00
10014;BME280;45684;48.358;10.746;2023-04-01T08:18:36;94989.47;;;10.81;100.00
10014;BME280;45684;48.358;10.746;2023-04-01T08:21:12;94999.19;;;10.98;100.00
10014;BME280;45684;48.358;10.746;2023-04-01T08:23:44;95005.56;;;11.06;99.73
10014;BME280;45684;48.358;10.746;2023-04-01T08:26:22;95000.84;;;11.18;97.81
10014;BME280;45684;48.358;10.746;2023-04-01T08:28:56;94995.38;;;11.31;96.98
10014;BME280;45684;48.358;10.746;2023-04-01T08:31:36;94987.84;;;11.40;97.27
10014;BME280;45684;48.358;10.746;2023-04-01T08:34:14;94995.97;;;11.40;95.16
10014;BME280;45684;48.358;10.746;2023-04-01T08:36:47;94991.25;;;11.37;96.74
10014;BME280;45684;48.358;10.746;2023-04-01T08:39:31;94994.75;;;11.53;93.83
10014;BME280;45684;48.358;10.746;2023-04-01T08:45:48;94993.88;;;11.17;94.48
10014;BME280;45684;48.358;10.746;2023-04-01T08:48:36;95004.38;;;11.35;96.25
10014;BME280;45684;48.358;10.746;2023-04-01T08:51:30;94990.28;;;11.45;97.46
10014;BME280;45684;48.358;10.746;2023-04-01T08:54:17;94996.06;;;11.28;93.53
10014;BME280;45684;48.358;10.746;2023-04-01T08:56:57;95011.06;;;11.09;95.03
10014;BME280;45684;48.358;10.746;2023-04-01T08:59:57;94991.00;;;11.10;96.58
10014;BME280;45684;48.358;10.746;2023-04-01T09:06:22;94986.38;;;11.42;95.83
10014;BME280;45684;48.358;10.746;2023-04-01T09:09:06;94991.00;;;11.42;95.21
10014;BME280;45684;48.358;10.746;2023-04-01T09:12:10;94992.03;;;11.53;93.21
10014;BME280;45684;48.358;10.746;2023-04-01T09:15:01;94989.50;;;11.44;92.75
10014;BME280;45684;48.358;10.746;2023-04-01T09:18:03;94992.94;;;11.26;94.04
10014;BME280;45684;48.358;10.746;2023-04-01T09:21:04;94987.16;;;11.27;95.62
10014;BME280;45684;48.358;10.746;2023-04-01T09:24:05;94985.06;;;11.52;95.99
10014;BME280;45684;48.358;10.746;2023-04-01T09:26:59;94982.50;;;11.75;93.00
10014;BME280;45684;48.358;10.746;2023-04-01T09:29:51;94980.91;;;11.74;91.81
10014;BME280;45684;48.358;10.746;2023-04-01T09:32:42;94975.72;;;12.00;89.84
10014;BME280;45684;48.358;10.746;2023-04-01T09:35:23;94973.72;;;11.97;88.28
10014;BME280;45684;48.358;10.746;2023-04-01T09:38:05;94964.03;;;12.16;88.13
10014;BME280;45684;48.358;10.746;2023-04-01T09:40:48;94987.03;;;12.41;86.98
10014;BME280;45684;48.358;10.746;2023-04-01T09:43:49;94986.00;;;12.30;85.86
10014;BME280;45684;48.358;10.746;2023-04-01T09:46:26;94969.81;;;12.14;86.77
10014;BME280;45684;48.358;10.746;2023-04-01T09:52:09;94982.88;;;12.28;88.04
10014;BME280;45684;48.358;10.746;2023-04-01T09:54:54;94993.34;;;12.10;91.60
10014;BME280;45684;48.358;10.746;2023-04-01T09:58:03;94993.41;;;11.94;95.94
10014;BME280;45684;48.358;10.746;2023-04-01T10:04:40;94984.19;;;11.48;100.00
10014;BME280;45684;48.358;10.746;2023-04-01T10:07:36;94988.63;;;11.40;100.00
10014;BME280;45684;48.358;10.746;2023-04-01T10:10:30;94997.47;;;11.21;100.00
10014;BME280;45684;48.358;10.746;2023-04-01T10:13:31;94991.16;;;11.02;100.00
10014;BME280;45684;48.358;10.746;2023-04-01T10:16:34;95001.00;;;10.78;100.00
10014;BME280;45684;48.358;10.746;2023-04-01T10:22:37;95004.81;;;10.49;100.00
10014;BME280;45684;48.358;10.746;2023-04-01T10:25:29;94997.44;;;10.34;100.00
10014;BME280;45684;48.358;10.746;2023-04-01T10:28:31;94993.63;;;10.35;100.00
10014;BME280;45684;48.358;10.746;2023-04-01T10:37:36;95000.34;;;10.01;100.00
10014;BME280;45684;48.358;10.746;2023-04-01T10:40:36;94991.69;;;9.83;100.00
10014;BME280;45684;48.358;10.746;2023-04-01T10:47:05;95004.44;;;9.58;100.00
10014;BME280;45684;48.358;10.746;2023-04-01T10:49:48;94999.03;;;9.58;100.00
10014;BME280;45684;48.358;10.746;2023-04-01T11:00:02;94992.41;;;9.43;100.00
10014;BME280;45684;48.358;10.746;2023-04-01T11:12:50;94991.81;;;9.13;100.00
10014;BME280;45684;48.358;10.746;2023-04-01T11:15:44;94984.66;;;9.05;100.00
10014;BME280;45684;48.358;10.746;2023-04-01T11:18:47;94995.97;;;8.98;100.00
10014;BME280;45684;48.358;10.746;2023-04-01T11:21:51;94987.22;;;9.01;100.00
10014;BME280;45684;48.358;10.746;2023-04-01T11:24:51;94978.34;;;9.13;100.00
10014;BME280;45684;48.358;10.746;2023-04-01T11:27:46;94975.88;;;9.08;100.00
10014;BME280;45684;48.358;10.746;2023-04-01T11:30:25;94990.59;;;9.10;100.00
10014;BME280;45684;48.358;10.746;2023-04-01T11:33:01;94990.38;;;9.15;100.00
10014;BME280;45684;48.358;10.746;2023-04-01T11:35:52;94987.34;;;9.29;100.00
10014;BME280;45684;48.358;10.746;2023-04-01T11:38:34;94985.66;;;9.37;100.00
10014;BME280;45684;48.358;10.746;2023-04-01T11:41:37;94986.25;;;9.42;100.00
10014;BME280;45684;48.358;10.746;2023-04-01T11:44:29;94990.63;;;9.47;100.00
10014;BME280;45684;48.358;10.746;2023-04-01T11:47:44;94980.81;;;9.55;100.00
10014;BME280;45684;48.358;10.746;2023-04-01T11:50:22;94989.25;;;9.53;100.00
10014;BME280;45684;48.358;10.746;2023-04-01T11:53:15;94988.13;;;9.54;100.00
10014;BME280;45684;48.358;10.746;2023-04-01T11:55:56;94992.16;;;9.60;100.00
10014;BME280;45684;48.358;10.746;2023-04-01T11:59:13;95001.41;;;9.59;100.00
10014;BME280;45684;48.358;10.746;2023-04-01T12:01:56;95001.75;;;9.58;100.00
10014;BME280;45684;48.358;10.746;2023-04-01T12:04:59;94990.94;;;9.70;100.00
10014;BME280;45684;48.358;10.746;2023-04-01T12:07:50;95010.50;;;9.67;100.00
10014;BME280;45684;48.358;10.746;2023-04-01T12:10:24;94980.59;;;9.60;100.00
10014;BME280;45684;48.358;10.746;2023-04-01T12:13:02;95004.66;;;9.40;100.00
10014;BME280;45684;48.358;10.746;2023-04-01T12:15:43;95013.56;;;9.53;100.00
10014;BME280;45684;48.358;10.746;2023-04-01T12:18:21;95012.53;;;9.58;100.00
10014;BME280;45684;48.358;10.746;2023-04-01T12:20:56;95015.34;;;9.61;100.00
10014;BME280;45684;48.358;10.746;2023-04-01T12:23:40;95025.91;;;9.66;100.00
10014;BME280;45684;48.358;10.746;2023-04-01T12:26:30;95008.72;;;9.71;100.00
10014;BME280;45684;48.358;10.746;2023-04-01T12:29:24;95020.72;;;9.74;100.00
10014;BME280;45684;48.358;10.746;2023-04-01T12:32:09;95017.59;;;9.71;100.00
10014;BME280;45684;48.358;10.746;2023-04-01T12:34:51;95013.88;;;9.76;100.00
10014;BME280;45684;48.358;10.746;2023-04-01T12:37:31;95005.97;;;9.83;100.00
10014;BME280;45684;48.358;10.746;2023-04-01T12:40:17;95020.28;;;9.71;100.00
10014;BME280;45684;48.358;10.746;2023-04-01T12:42:57;95022.53;;;9.82;100.00
10014;BME280;45684;48.358;10.746;2023-04-01T12:45:30;95011.06;;;9.73;100.00
10014;BME280;45684;48.358;10.746;2023-04-01T12:48:23;95017.34;;;9.77;100.00
10014;BME280;45684;48.358;10.746;2023-04-01T12:54:16;95014.22;;;9.62;100.00
10014;BME280;45684;48.358;10.746;2023-04-01T12:56:57;95012.84;;;9.68;100.00
10014;BME280;45684;48.358;10.746;2023-04-01T12:59:45;95014.66;;;9.89;100.00
10014;BME280;45684;48.358;10.746;2023-04-01T13:02:30;95022.06;;;9.92;100.00
10014;BME280;45684;48.358;10.746;2023-04-01T13:05:31;95007.00;;;9.91;100.00
10014;BME280;45684;48.358;10.746;2023-04-01T13:08:10;95014.75;;;9.92;100.00
10014;BME280;45684;48.358;10.746;2023-04-01T13:10:53;95014.44;;;9.82;100.00
10014;BME280;45684;48.358;10.746;2023-04-01T13:16:36;95013.28;;;9.95;100.00
10014;BME280;45684;48.358;10.746;2023-04-01T13:19:09;95021.38;;;9.95;100.00
10014;BME280;45684;48.358;10.746;2023-04-01T13:21:51;95021.75;;;9.93;100.00
10014;BME280;45684;48.358;10.746;2023-04-01T13:24:30;95026.66;;;10.04;100.00
10014;BME280;45684;48.358;10.746;2023-04-01T13:27:04;95031.03;;;10.08;100.00
10014;BME280;45684;48.358;10.746;2023-04-01T13:29:36;95025.59;;;10.20;100.00
10014;BME280;45684;48.358;10.746;2023-04-01T13:32:22;95021.13;;;10.25;100.00
10014;BME280;45684;48.358;10.746;2023-04-01T13:35:17;95031.16;;;10.24;100.00
10014;BME280;45684;48.358;10.746;2023-04-01T13:37:59;95031.22;;;10.40;100.00
10014;BME280;45684;48.358;10.746;2023-04-01T13:40:39;95025.38;;;10.38;100.00
10014;BME280;45684;48.358;10.746;2023-04-01T13:43:29;95029.09;;;10.33;100.00
10014;BME280;45684;48.358;10.746;2023-04-01T13:46:26;95032.09;;;10.44;100.00
10014;BME280;45684;48.358;10.746;2023-04-01T13:49:24;95032.06;;;10.56;100.00
10014;BME280;45684;48.358;10.746;2023-04-01T13:52:08;95036.28;;;10.69;100.00
10014;BME280;45684;48.358;10.746;2023-04-01T13:54:55;95027.03;;;10.70;100.00
10014;BME280;45684;48.358;10.746;2023-04-01T13:57:42;95036.22;;;10.82;100.00
10014;BME280;45684;48.358;10.746;2023-04-01T14:00:19;95026.03;;;10.91;100.00
10014;BME280;45684;48.358;10.746;2023-04-01T14:03:26;95042.03;;;10.96;100.00
10014;BME280;45684;48.358;10.746;2023-04-01T14:06:31;95046.06;;;11.02;100.00
10014;BME280;45684;48.358;10.746;2023-04-01T14:09:16;95045.72;;;10.76;100.00
10014;BME280;45684;48.358;10.746;2023-04-01T14:11:55;95034.75;;;10.84;100.00
10014;BME280;45684;48.358;10.746;2023-04-01T14:14:35;95056.53;;;10.76;100.00
10014;BME280;45684;48.358;10.746;2023-04-01T14:17:13;95042.47;;;10.70;100.00
10014;BME280;45684;48.358;10.746;2023-04-01T14:20:02;95046.72;;;10.55;100.00
10014;BME280;45684;48.358;10.746;2023-04-01T14:22:40;95049.19;;;10.48;100.00
10014;BME280;45684;48.358;10.746;2023-04-01T14:25:23;95055.06;;;10.50;100.00
10014;BME280;45684;48.358;10.746;2023-04-01T14:28:00;95048.34;;;10.32;100.00
10014;BME280;45684;48.358;10.746;2023-04-01T14:30:40;95044.25;;;10.50;100.00
10014;BME280;45684;48.358;10.746;2023-04-01T14:33:21;95049.19;;;10.48;100.00
10014;BME280;45684;48.358;10.746;2023-04-01T14:36:02;95050.06;;;10.64;100.00
10014;BME280;45684;48.358;10.746;2023-04-01T14:38:47;95048.38;;;10.88;100.00
10014;BME280;45684;48.358;10.746;2023-04-01T14:41:35;95036.94;;;10.94;100.00
10014;BME280;45684;48.358;10.746;2023-04-01T14:44:22;95049.56;;;11.18;100.00